sensor_id;sensor_type;location;lat;lon;timestamp;pressure;altitude;pressure_sealevel;temperature;humidity
78855;BME280;68206;59.956;30.234;2023-07-20T00:02:50;99769.72;;;17.48;69.80
78855;BME280;68206;59.956;30.234;2023-07-20T00:05:19;99781.06;;;17.51;69.87
78855;BME280;68206;59.956;30.234;2023-07-20T00:07:48;99775.59;;;17.53;69.74
78855;BME280;68206;59.956;30.234;2023-07-20T00:10:18;99790.81;;;17.52;69.73
78855;BME280;68206;59.956;30.234;2023-07-20T00:12:46;99779.13;;;17.53;69.79
78855;BME280;68206;59.956;30.234;2023-07-20T00:15:15;99779.13;;;17.53;69.62
78855;BME280;68206;59.956;30.234;2023-07-20T00:17:43;99783.75;;;17.51;69.51
78855;BME280;68206;59.956;30.234;2023-07-20T00:20:13;99780.31;;;17.49;69.90
78855;BME280;68206;59.956;30.234;2023-07-20T00:22:41;99777.00;;;17.46;69.81
78855;BME280;68206;59.956;30.234;2023-07-20T00:25:09;99790.66;;;17.43;69.74
78855;BME280;68206;59.956;30.234;2023-07-20T00:27:38;99790.50;;;17.44;69.69
78855;BME280;68206;59.956;30.234;2023-07-20T00:30:07;99785.91;;;17.46;69.59
78855;BME280;68206;59.956;30.234;2023-07-20T00:32:35;99789.34;;;17.48;69.67
78855;BME280;68206;59.956;30.234;2023-07-20T00:35:04;99778.72;;;17.47;70.07
78855;BME280;68206;59.956;30.234;2023-07-20T00:37:34;99788.34;;;17.49;69.83
78855;BME280;68206;59.956;30.234;2023-07-20T00:40:02;99784.09;;;17.47;70.34
78855;BME280;68206;59.956;30.234;2023-07-20T00:42:31;99788.34;;;17.49;70.24
78855;BME280;68206;59.956;30.234;2023-07-20T00:44:59;99783.84;;;17.50;70.22
78855;BME280;68206;59.956;30.234;2023-07-20T00:47:30;99781.06;;;17.51;70.26
78855;BME280;68206;59.956;30.234;2023-07-20T00:49:58;99773.97;;;17.50;70.48
78855;BME280;68206;59.956;30.234;2023-07-20T00:52:27;99778.47;;;17.50;70.60
78855;BME280;68206;59.956;30.234;2023-07-20T00:54:57;99778.28;;;17.53;70.61
78855;BME280;68206;59.956;30.234;2023-07-20T00:57:26;99779.13;;;17.53;70.80
78855;BME280;68206;59.956;30.234;2023-07-20T00:59:55;99780.94;;;17.53;70.92
78855;BME280;68206;59.956;30.234;2023-07-20T01:02:23;99778.28;;;17.53;70.93
78855;BME280;68206;59.956;30.234;2023-07-20T01:04:51;99772.16;;;17.51;71.16
78855;BME280;68206;59.956;30.234;2023-07-20T01:07:24;99773.88;;;17.52;71.30
78855;BME280;68206;59.956;30.234;2023-07-20T01:10:00;99773.78;;;17.53;71.42
78855;BME280;68206;59.956;30.234;2023-07-20T01:12:32;99776.44;;;17.53;71.52
78855;BME280;68206;59.956;30.234;2023-07-20T01:15:04;99785.56;;;17.51;71.42
78855;BME280;68206;59.956;30.234;2023-07-20T01:17:34;99782.03;;;17.50;71.51
78855;BME280;68206;59.956;30.234;2023-07-20T01:20:03;99781.91;;;17.52;71.70
78855;BME280;68206;59.956;30.234;2023-07-20T01:22:47;99777.31;;;17.54;71.92
78855;BME280;68206;59.956;30.234;2023-07-20T01:25:30;99787.91;;;17.55;71.65
78855;BME280;68206;59.956;30.234;2023-07-20T01:28:33;99793.25;;;17.55;71.60
78855;BME280;68206;59.956;30.234;2023-07-20T01:31:29;99786.06;;;17.56;71.81
78855;BME280;68206;59.956;30.234;2023-07-20T01:34:00;99787.78;;;17.57;71.79
78855;BME280;68206;59.956;30.234;2023-07-20T01:36:33;99786.72;;;17.59;71.95
78855;BME280;68206;59.956;30.234;2023-07-20T01:39:02;99790.25;;;17.60;72.48
78855;BME280;68206;59.956;30.234;2023-07-20T01:41:31;99786.66;;;17.61;72.02
78855;BME280;68206;59.956;30.234;2023-07-20T01:44:00;99788.34;;;17.62;72.27
78855;BME280;68206;59.956;30.234;2023-07-20T01:46:30;99785.66;;;17.62;72.42
78855;BME280;68206;59.956;30.234;2023-07-20T01:48:58;99793.69;;;17.62;72.23
78855;BME280;68206;59.956;30.234;2023-07-20T01:51:26;99791.78;;;17.64;72.36
78855;BME280;68206;59.956;30.234;2023-07-20T01:53:54;99796.06;;;17.66;72.29
78855;BME280;68206;59.956;30.234;2023-07-20T01:56:23;99795.94;;;17.68;72.20
78855;BME280;68206;59.956;30.234;2023-07-20T01:58:51;99790.38;;;17.71;72.05
78855;BME280;68206;59.956;30.234;2023-07-20T02:01:19;99798.31;;;17.72;71.78
78855;BME280;68206;59.956;30.234;2023-07-20T02:03:51;99798.31;;;17.72;71.70
78855;BME280;68206;59.956;30.234;2023-07-20T02:06:20;99793.78;;;17.73;71.52
78855;BME280;68206;59.956;30.234;2023-07-20T02:08:48;99797.53;;;17.70;71.61
78855;BME280;68206;59.956;30.234;2023-07-20T02:11:16;99798.16;;;17.74;71.47
78855;BME280;68206;59.956;30.234;2023-07-20T02:13:44;99801.84;;;17.73;71.26
78855;BME280;68206;59.956;30.234;2023-07-20T02:16:12;99797.44;;;17.72;71.35
78855;BME280;68206;59.956;30.234;2023-07-20T02:18:41;99797.34;;;17.73;71.22
78855;BME280;68206;59.956;30.234;2023-07-20T02:21:10;99793.66;;;17.74;71.19
78855;BME280;68206;59.956;30.234;2023-07-20T02:23:38;99798.91;;;17.76;71.35
78855;BME280;68206;59.956;30.234;2023-07-20T02:26:06;99791.63;;;17.78;71.53
78855;BME280;68206;59.956;30.234;2023-07-20T02:28:34;99790.53;;;17.81;71.32
78855;BME280;68206;59.956;30.234;2023-07-20T02:31:02;99791.16;;;17.84;70.90
78855;BME280;68206;59.956;30.234;2023-07-20T02:33:30;99800.94;;;17.85;70.73
78855;BME280;68206;59.956;30.234;2023-07-20T02:35:59;99794.38;;;17.89;70.60
78855;BME280;68206;59.956;30.234;2023-07-20T02:38:28;99798.66;;;17.92;70.10
78855;BME280;68206;59.956;30.234;2023-07-20T02:40:56;99802.59;;;17.99;70.01
78855;BME280;68206;59.956;30.234;2023-07-20T02:43:24;99805.66;;;18.05;69.68
78855;BME280;68206;59.956;30.234;2023-07-20T02:45:53;99808.00;;;18.10;69.66
78855;BME280;68206;59.956;30.234;2023-07-20T02:48:21;99807.66;;;18.14;69.49
78855;BME280;68206;59.956;30.234;2023-07-20T02:50:49;99808.91;;;18.22;69.13
78855;BME280;68206;59.956;30.234;2023-07-20T02:53:17;99805.66;;;18.29;68.85
78855;BME280;68206;59.956;30.234;2023-07-20T02:55:47;99806.06;;;18.36;68.83
78855;BME280;68206;59.956;30.234;2023-07-20T02:58:15;99810.81;;;18.43;68.42
78855;BME280;68206;59.956;30.234;2023-07-20T03:00:43;99810.00;;;18.54;68.28
78855;BME280;68206;59.956;30.234;2023-07-20T03:03:11;99808.25;;;18.66;67.98
78855;BME280;68206;59.956;30.234;2023-07-20T03:05:40;99804.72;;;18.76;67.45
78855;BME280;68206;59.956;30.234;2023-07-20T03:08:09;99799.13;;;18.90;67.17
78855;BME280;68206;59.956;30.234;2023-07-20T03:10:40;99798.38;;;19.00;66.75
78855;BME280;68206;59.956;30.234;2023-07-20T03:13:10;99795.09;;;18.96;66.71
78855;BME280;68206;59.956;30.234;2023-07-20T03:15:40;99795.56;;;18.90;66.88
78855;BME280;68206;59.956;30.234;2023-07-20T03:18:08;99805.94;;;18.83;67.06
78855;BME280;68206;59.956;30.234;2023-07-20T03:20:38;99788.13;;;18.93;66.70
78855;BME280;68206;59.956;30.234;2023-07-20T03:23:06;99803.28;;;18.94;66.72
78855;BME280;68206;59.956;30.234;2023-07-20T03:25:35;99802.56;;;19.04;66.55
78855;BME280;68206;59.956;30.234;2023-07-20T03:28:04;99799.13;;;19.02;66.34
78855;BME280;68206;59.956;30.234;2023-07-20T03:30:34;99806.81;;;18.95;66.65
78855;BME280;68206;59.956;30.234;2023-07-20T03:33:02;99801.56;;;18.93;66.88
78855;BME280;68206;59.956;30.234;2023-07-20T03:35:31;99798.63;;;18.97;66.83
78855;BME280;68206;59.956;30.234;2023-07-20T03:37:59;99805.97;;;19.06;66.52
78855;BME280;68206;59.956;30.234;2023-07-20T03:40:28;99804.38;;;19.14;66.18
78855;BME280;68206;59.956;30.234;2023-07-20T03:42:56;99812.94;;;19.19;66.03
78855;BME280;68206;59.956;30.234;2023-07-20T03:45:24;99804.03;;;19.30;65.41
78855;BME280;68206;59.956;30.234;2023-07-20T03:47:53;99808.53;;;19.41;65.13
78855;BME280;68206;59.956;30.234;2023-07-20T03:50:22;99807.31;;;19.45;64.97
78855;BME280;68206;59.956;30.234;2023-07-20T03:52:50;99813.31;;;19.59;64.50
78855;BME280;68206;59.956;30.234;2023-07-20T03:55:19;99811.59;;;19.69;64.34
78855;BME280;68206;59.956;30.234;2023-07-20T03:57:47;99811.91;;;19.87;63.44
78855;BME280;68206;59.956;30.234;2023-07-20T04:00:18;99813.94;;;20.06;62.78
78855;BME280;68206;59.956;30.234;2023-07-20T04:02:46;99808.53;;;20.70;61.24
78855;BME280;68206;59.956;30.234;2023-07-20T04:05:16;99816.66;;;21.00;60.31
78855;BME280;68206;59.956;30.234;2023-07-20T04:07:44;99807.16;;;20.96;60.03
78855;BME280;68206;59.956;30.234;2023-07-20T04:10:12;99815.22;;;20.96;59.75
78855;BME280;68206;59.956;30.234;2023-07-20T04:12:40;99812.34;;;20.88;59.66
78855;BME280;68206;59.956;30.234;2023-07-20T04:15:09;99811.44;;;20.78;59.92
78855;BME280;68206;59.956;30.234;2023-07-20T04:17:37;99816.75;;;20.68;59.91
78855;BME280;68206;59.956;30.234;2023-07-20T04:20:06;99818.13;;;20.63;59.83
78855;BME280;68206;59.956;30.234;2023-07-20T04:22:36;99808.41;;;20.50;60.14
78855;BME280;68206;59.956;30.234;2023-07-20T04:25:07;99812.41;;;20.35;60.53
78855;BME280;68206;59.956;30.234;2023-07-20T04:27:36;99811.72;;;20.43;60.39
78855;BME280;68206;59.956;30.234;2023-07-20T04:30:07;99816.03;;;20.45;60.11
78855;BME280;68206;59.956;30.234;2023-07-20T04:32:37;99814.38;;;20.33;60.13
78855;BME280;68206;59.956;30.234;2023-07-20T04:35:06;99827.22;;;20.19;60.59
78855;BME280;68206;59.956;30.234;2023-07-20T04:37:38;99820.13;;;20.29;60.36
78855;BME280;68206;59.956;30.234;2023-07-20T04:40:15;99821.06;;;20.39;60.27
78855;BME280;68206;59.956;30.234;2023-07-20T04:42:44;99834.63;;;20.48;59.83
78855;BME280;68206;59.956;30.234;2023-07-20T04:45:13;99827.25;;;20.50;59.83
78855;BME280;68206;59.956;30.234;2023-07-20T04:47:41;99827.13;;;20.52;59.39
78855;BME280;68206;59.956;30.234;2023-07-20T04:50:09;99831.47;;;20.64;59.08
78855;BME280;68206;59.956;30.234;2023-07-20T04:52:39;99828.88;;;20.74;58.86
78855;BME280;68206;59.956;30.234;2023-07-20T04:55:13;99826.22;;;20.83;58.66
78855;BME280;68206;59.956;30.234;2023-07-20T04:57:42;99827.41;;;20.90;58.38
78855;BME280;68206;59.956;30.234;2023-07-20T05:00:11;99827.44;;;21.00;58.22
78855;BME280;68206;59.956;30.234;2023-07-20T05:02:41;99825.19;;;21.16;57.51
78855;BME280;68206;59.956;30.234;2023-07-20T05:05:09;99829.94;;;21.13;57.65
78855;BME280;68206;59.956;30.234;2023-07-20T05:07:38;99833.25;;;21.16;57.36
78855;BME280;68206;59.956;30.234;2023-07-20T05:10:07;99824.81;;;21.10;57.38
78855;BME280;68206;59.956;30.234;2023-07-20T05:12:35;99826.38;;;21.12;57.23
78855;BME280;68206;59.956;30.234;2023-07-20T05:15:04;99829.06;;;21.33;56.88
78855;BME280;68206;59.956;30.234;2023-07-20T05:17:33;99834.63;;;21.81;55.79
78855;BME280;68206;59.956;30.234;2023-07-20T05:20:01;99828.78;;;22.26;54.24
78855;BME280;68206;59.956;30.234;2023-07-20T05:22:31;99832.19;;;22.57;53.20
78855;BME280;68206;59.956;30.234;2023-07-20T05:25:00;99840.91;;;22.79;52.14
78855;BME280;68206;59.956;30.234;2023-07-20T05:27:28;99837.41;;;23.16;51.36
78855;BME280;68206;59.956;30.234;2023-07-20T05:29:56;99842.28;;;23.49;50.26
78855;BME280;68206;59.956;30.234;2023-07-20T05:32:25;99829.13;;;23.64;50.13
78855;BME280;68206;59.956;30.234;2023-07-20T05:34:53;99824.56;;;23.92;48.77
78855;BME280;68206;59.956;30.234;2023-07-20T05:37:22;99821.66;;;24.38;48.17
78855;BME280;68206;59.956;30.234;2023-07-20T05:39:50;99829.53;;;25.62;44.30
78855;BME280;68206;59.956;30.234;2023-07-20T05:42:19;99835.06;;;25.87;43.92
78855;BME280;68206;59.956;30.234;2023-07-20T05:44:48;99839.00;;;25.92;43.86
78855;BME280;68206;59.956;30.234;2023-07-20T05:47:16;99837.69;;;26.04;43.16
78855;BME280;68206;59.956;30.234;2023-07-20T05:49:44;99831.69;;;26.67;41.42
78855;BME280;68206;59.956;30.234;2023-07-20T05:52:13;99823.00;;;28.06;39.63
78855;BME280;68206;59.956;30.234;2023-07-20T05:54:41;99835.00;;;29.63;35.50
78855;BME280;68206;59.956;30.234;2023-07-20T05:57:09;99832.91;;;31.72;32.92
78855;BME280;68206;59.956;30.234;2023-07-20T05:59:38;99830.19;;;32.32;31.50
78855;BME280;68206;59.956;30.234;2023-07-20T06:02:11;99832.19;;;31.97;31.21
78855;BME280;68206;59.956;30.234;2023-07-20T06:04:39;99831.13;;;32.99;29.34
78855;BME280;68206;59.956;30.234;2023-07-20T06:07:07;99824.94;;;33.76;28.06
78855;BME280;68206;59.956;30.234;2023-07-20T06:09:36;99830.91;;;33.59;27.94
78855;BME280;68206;59.956;30.234;2023-07-20T06:12:05;99826.94;;;32.83;28.63
78855;BME280;68206;59.956;30.234;2023-07-20T06:14:33;99829.53;;;31.42;30.88
78855;BME280;68206;59.956;30.234;2023-07-20T06:17:03;99840.56;;;30.99;31.51
78855;BME280;68206;59.956;30.234;2023-07-20T06:19:31;99836.22;;;30.62;31.38
78855;BME280;68206;59.956;30.234;2023-07-20T06:21:59;99839.69;;;30.99;31.05
78855;BME280;68206;59.956;30.234;2023-07-20T06:24:27;99843.72;;;31.24;30.66
78855;BME280;68206;59.956;30.234;2023-07-20T06:26:55;99843.53;;;32.42;28.67
78855;BME280;68206;59.956;30.234;2023-07-20T06:29:23;99840.31;;;32.25;28.57
78855;BME280;68206;59.956;30.234;2023-07-20T06:31:52;99842.19;;;31.15;29.97
78855;BME280;68206;59.956;30.234;2023-07-20T06:34:21;99852.91;;;30.31;31.08
78855;BME280;68206;59.956;30.234;2023-07-20T06:36:50;99847.44;;;30.89;30.36
78855;BME280;68206;59.956;30.234;2023-07-20T06:39:18;99850.06;;;31.24;29.67
78855;BME280;68206;59.956;30.234;2023-07-20T06:41:49;99849.00;;;31.53;29.75
78855;BME280;68206;59.956;30.234;2023-07-20T06:44:22;99856.31;;;32.89;27.54
78855;BME280;68206;59.956;30.234;2023-07-20T06:46:50;99843.81;;;32.93;26.80
78855;BME280;68206;59.956;30.234;2023-07-20T06:49:27;99862.41;;;33.50;26.73
78855;BME280;68206;59.956;30.234;2023-07-20T06:51:56;99853.47;;;34.39;25.45
78855;BME280;68206;59.956;30.234;2023-07-20T06:54:25;99862.16;;;35.30;24.20
78855;BME280;68206;59.956;30.234;2023-07-20T06:57:05;99865.25;;;35.83;22.78
78855;BME280;68206;59.956;30.234;2023-07-20T06:59:36;99862.41;;;35.72;23.23
78855;BME280;68206;59.956;30.234;2023-07-20T07:02:08;99855.38;;;36.42;23.08
78855;BME280;68206;59.956;30.234;2023-07-20T07:04:41;99855.88;;;36.69;22.56
78855;BME280;68206;59.956;30.234;2023-07-20T07:09:52;99855.34;;;36.60;22.80
78855;BME280;68206;59.956;30.234;2023-07-20T07:12:23;99861.69;;;36.31;22.31
78855;BME280;68206;59.956;30.234;2023-07-20T07:14:52;99856.00;;;36.74;21.37
78855;BME280;68206;59.956;30.234;2023-07-20T07:17:20;99857.22;;;36.78;22.05
78855;BME280;68206;59.956;30.234;2023-07-20T07:19:51;99857.91;;;36.44;21.98
78855;BME280;68206;59.956;30.234;2023-07-20T07:22:20;99855.75;;;35.97;22.60
78855;BME280;68206;59.956;30.234;2023-07-20T07:24:49;99856.50;;;35.25;23.16
78855;BME280;68206;59.956;30.234;2023-07-20T07:27:17;99867.59;;;34.49;24.89
78855;BME280;68206;59.956;30.234;2023-07-20T07:29:45;99864.44;;;33.94;24.85
78855;BME280;68206;59.956;30.234;2023-07-20T07:32:15;99864.03;;;32.53;26.55
78855;BME280;68206;59.956;30.234;2023-07-20T07:34:44;99870.41;;;31.64;28.30
78855;BME280;68206;59.956;30.234;2023-07-20T07:37:14;99872.97;;;30.74;29.67
78855;BME280;68206;59.956;30.234;2023-07-20T07:39:44;99879.25;;;30.90;29.49
78855;BME280;68206;59.956;30.234;2023-07-20T07:42:12;99872.06;;;30.67;30.01
78855;BME280;68206;59.956;30.234;2023-07-20T07:44:40;99864.91;;;30.66;30.20
78855;BME280;68206;59.956;30.234;2023-07-20T07:47:08;99869.53;;;30.66;29.91
78855;BME280;68206;59.956;30.234;2023-07-20T07:49:37;99871.88;;;30.90;29.55
78855;BME280;68206;59.956;30.234;2023-07-20T07:52:06;99865.50;;;31.32;29.74
78855;BME280;68206;59.956;30.234;2023-07-20T07:54:35;99874.63;;;30.90;29.70
78855;BME280;68206;59.956;30.234;2023-07-20T07:57:03;99870.00;;;29.97;31.18
78855;BME280;68206;59.956;30.234;2023-07-20T07:59:32;99876.75;;;30.01;31.25
78855;BME280;68206;59.956;30.234;2023-07-20T08:02:04;99874.94;;;30.80;29.87
78855;BME280;68206;59.956;30.234;2023-07-20T08:04:33;99887.22;;;31.61;28.54
78855;BME280;68206;59.956;30.234;2023-07-20T08:07:03;99879.25;;;32.62;26.93
78855;BME280;68206;59.956;30.234;2023-07-20T08:09:31;99880.78;;;33.63;25.26
78855;BME280;68206;59.956;30.234;2023-07-20T08:12:01;99876.38;;;33.42;25.96
78855;BME280;68206;59.956;30.234;2023-07-20T08:14:30;99881.84;;;32.76;26.97
78855;BME280;68206;59.956;30.234;2023-07-20T08:16:58;99873.03;;;31.79;27.75
78855;BME280;68206;59.956;30.234;2023-07-20T08:19:27;99884.63;;;31.25;28.89
78855;BME280;68206;59.956;30.234;2023-07-20T08:21:55;99877.13;;;29.84;30.83
78855;BME280;68206;59.956;30.234;2023-07-20T08:24:23;99877.78;;;29.04;32.15
78855;BME280;68206;59.956;30.234;2023-07-20T08:26:52;99870.31;;;27.83;35.01
78855;BME280;68206;59.956;30.234;2023-07-20T08:29:21;99868.56;;;27.98;34.78
78855;BME280;68206;59.956;30.234;2023-07-20T08:31:49;99883.44;;;28.26;34.37
78855;BME280;68206;59.956;30.234;2023-07-20T08:34:18;99875.13;;;28.42;33.48
78855;BME280;68206;59.956;30.234;2023-07-20T08:36:58;99884.69;;;28.69;33.83
78855;BME280;68206;59.956;30.234;2023-07-20T08:39:26;99880.75;;;28.72;33.80
78855;BME280;68206;59.956;30.234;2023-07-20T08:41:55;99895.53;;;28.24;34.48
78855;BME280;68206;59.956;30.234;2023-07-20T08:44:25;99882.91;;;27.84;34.73
78855;BME280;68206;59.956;30.234;2023-07-20T08:46:54;99902.56;;;27.55;35.28
78855;BME280;68206;59.956;30.234;2023-07-20T08:49:23;99906.16;;;27.39;35.30
78855;BME280;68206;59.956;30.234;2023-07-20T08:51:51;99907.53;;;27.35;35.39
78855;BME280;68206;59.956;30.234;2023-07-20T08:54:21;99903.66;;;26.97;36.22
78855;BME280;68206;59.956;30.234;2023-07-20T08:56:49;99907.19;;;26.81;36.29
78855;BME280;68206;59.956;30.234;2023-07-20T08:59:17;99900.03;;;26.80;36.22
78855;BME280;68206;59.956;30.234;2023-07-20T09:01:51;99896.13;;;26.67;36.43
78855;BME280;68206;59.956;30.234;2023-07-20T09:04:21;99902.06;;;26.04;37.52
78855;BME280;68206;59.956;30.234;2023-07-20T09:06:50;99906.25;;;25.90;37.93
78855;BME280;68206;59.956;30.234;2023-07-20T09:09:18;99901.78;;;25.81;38.82
78855;BME280;68206;59.956;30.234;2023-07-20T09:11:47;99910.16;;;25.62;39.31
78855;BME280;68206;59.956;30.234;2023-07-20T09:14:16;99908.91;;;25.30;39.48
78855;BME280;68206;59.956;30.234;2023-07-20T09:16:52;99901.88;;;25.20;40.57
78855;BME280;68206;59.956;30.234;2023-07-20T09:19:21;99913.53;;;24.77;41.09
78855;BME280;68206;59.956;30.234;2023-07-20T09:21:51;99912.31;;;24.71;41.29
78855;BME280;68206;59.956;30.234;2023-07-20T09:24:20;99915.06;;;24.44;41.96
78855;BME280;68206;59.956;30.234;2023-07-20T09:26:52;99908.78;;;24.43;41.83
78855;BME280;68206;59.956;30.234;2023-07-20T09:29:21;99918.94;;;24.41;42.05
78855;BME280;68206;59.956;30.234;2023-07-20T09:32:01;99901.13;;;24.39;41.71
78855;BME280;68206;59.956;30.234;2023-07-20T09:34:30;99916.03;;;23.98;42.53
78855;BME280;68206;59.956;30.234;2023-07-20T09:37:01;99918.13;;;23.77;43.06
78855;BME280;68206;59.956;30.234;2023-07-20T09:39:31;99916.38;;;23.85;43.41
78855;BME280;68206;59.956;30.234;2023-07-20T09:42:00;99915.06;;;23.89;42.91
78855;BME280;68206;59.956;30.234;2023-07-20T09:44:31;99911.06;;;23.93;42.88
78855;BME280;68206;59.956;30.234;2023-07-20T09:47:04;99915.59;;;23.93;42.61
78855;BME280;68206;59.956;30.234;2023-07-20T09:49:39;99919.22;;;23.84;43.95
78855;BME280;68206;59.956;30.234;2023-07-20T09:52:11;99909.78;;;23.88;44.13
78855;BME280;68206;59.956;30.234;2023-07-20T09:54:40;99914.69;;;23.75;43.48
78855;BME280;68206;59.956;30.234;2023-07-20T09:57:08;99924.00;;;23.62;44.16
78855;BME280;68206;59.956;30.234;2023-07-20T09:59:39;99928.47;;;23.54;44.60
78855;BME280;68206;59.956;30.234;2023-07-20T10:02:15;99931.09;;;23.17;45.70
78855;BME280;68206;59.956;30.234;2023-07-20T10:04:53;99928.09;;;23.10;45.96
78855;BME280;68206;59.956;30.234;2023-07-20T10:07:22;99919.81;;;23.21;45.69
78855;BME280;68206;59.956;30.234;2023-07-20T10:09:55;99920.78;;;23.30;45.75
78855;BME280;68206;59.956;30.234;2023-07-20T10:12:25;99920.78;;;23.30;45.32
78855;BME280;68206;59.956;30.234;2023-07-20T10:15:10;99928.63;;;23.33;45.32
78855;BME280;68206;59.956;30.234;2023-07-20T10:17:48;99929.06;;;23.19;46.13
78855;BME280;68206;59.956;30.234;2023-07-20T10:20:19;99928.91;;;23.30;45.77
78855;BME280;68206;59.956;30.234;2023-07-20T10:22:53;99938.75;;;23.21;45.62
78855;BME280;68206;59.956;30.234;2023-07-20T10:25:23;99932.19;;;23.24;45.24
78855;BME280;68206;59.956;30.234;2023-07-20T10:27:53;99937.31;;;23.27;45.14
78855;BME280;68206;59.956;30.234;2023-07-20T10:30:23;99930.34;;;23.24;44.54
78855;BME280;68206;59.956;30.234;2023-07-20T10:32:53;99941.63;;;23.10;44.41
78855;BME280;68206;59.956;30.234;2023-07-20T10:35:21;99935.38;;;23.10;44.62
78855;BME280;68206;59.956;30.234;2023-07-20T10:37:52;99942.47;;;23.01;45.15
78855;BME280;68206;59.956;30.234;2023-07-20T10:40:30;99932.38;;;22.84;45.92
78855;BME280;68206;59.956;30.234;2023-07-20T10:43:00;99930.09;;;22.89;45.84
78855;BME280;68206;59.956;30.234;2023-07-20T10:45:37;99926.56;;;22.79;46.65
78855;BME280;68206;59.956;30.234;2023-07-20T10:48:15;99933.63;;;22.70;46.29
78855;BME280;68206;59.956;30.234;2023-07-20T10:50:44;99931.78;;;22.71;46.46
78855;BME280;68206;59.956;30.234;2023-07-20T10:53:16;99923.00;;;22.78;46.19
78855;BME280;68206;59.956;30.234;2023-07-20T10:55:44;99931.91;;;22.69;46.33
78855;BME280;68206;59.956;30.234;2023-07-20T10:58:14;99927.50;;;22.68;45.92
78855;BME280;68206;59.956;30.234;2023-07-20T11:00:56;99928.97;;;22.72;45.74
78855;BME280;68206;59.956;30.234;2023-07-20T11:03:29;99927.97;;;22.73;45.11
78855;BME280;68206;59.956;30.234;2023-07-20T11:06:31;99924.09;;;22.66;44.73
78855;BME280;68206;59.956;30.234;2023-07-20T11:09:08;99930.91;;;22.70;45.25
78855;BME280;68206;59.956;30.234;2023-07-20T11:11:39;99935.47;;;22.60;45.43
78855;BME280;68206;59.956;30.234;2023-07-20T11:14:08;99927.63;;;22.57;45.15
78855;BME280;68206;59.956;30.234;2023-07-20T11:16:39;99923.78;;;22.50;44.57
78855;BME280;68206;59.956;30.234;2023-07-20T11:19:17;99932.19;;;22.57;44.03
78855;BME280;68206;59.956;30.234;2023-07-20T11:21:50;99921.50;;;22.55;44.73
78855;BME280;68206;59.956;30.234;2023-07-20T11:24:30;99923.81;;;22.60;44.19
78855;BME280;68206;59.956;30.234;2023-07-20T11:27:00;99928.06;;;22.62;44.23
78855;BME280;68206;59.956;30.234;2023-07-20T11:29:30;99927.94;;;22.54;44.96
78855;BME280;68206;59.956;30.234;2023-07-20T11:32:00;99921.09;;;22.50;44.96
78855;BME280;68206;59.956;30.234;2023-07-20T11:34:34;99918.94;;;22.44;44.88
78855;BME280;68206;59.956;30.234;2023-07-20T11:37:03;99919.94;;;22.43;44.99
78855;BME280;68206;59.956;30.234;2023-07-20T11:39:34;99914.69;;;22.41;45.20
78855;BME280;68206;59.956;30.234;2023-07-20T11:42:03;99919.47;;;22.19;45.81
78855;BME280;68206;59.956;30.234;2023-07-20T11:44:32;99925.13;;;22.06;45.25
78855;BME280;68206;59.956;30.234;2023-07-20T11:47:00;99921.44;;;22.07;45.13
78855;BME280;68206;59.956;30.234;2023-07-20T11:49:35;99917.22;;;21.93;45.63
78855;BME280;68206;59.956;30.234;2023-07-20T11:52:06;99910.63;;;22.07;45.42
78855;BME280;68206;59.956;30.234;2023-07-20T11:54:37;99932.53;;;22.13;45.10
78855;BME280;68206;59.956;30.234;2023-07-20T11:57:06;99918.22;;;22.32;45.03
78855;BME280;68206;59.956;30.234;2023-07-20T11:59:34;99930.88;;;22.32;44.85
78855;BME280;68206;59.956;30.234;2023-07-20T12:02:03;99921.50;;;22.36;44.61
78855;BME280;68206;59.956;30.234;2023-07-20T12:04:31;99923.34;;;22.35;44.95
78855;BME280;68206;59.956;30.234;2023-07-20T12:07:01;99921.50;;;22.36;44.32
78855;BME280;68206;59.956;30.234;2023-07-20T12:09:29;99924.06;;;22.37;44.06
78855;BME280;68206;59.956;30.234;2023-07-20T12:12:18;99926.19;;;22.34;44.36
78855;BME280;68206;59.956;30.234;2023-07-20T12:14:47;99927.47;;;22.30;44.32
78855;BME280;68206;59.956;30.234;2023-07-20T12:17:15;99931.34;;;21.97;45.96
78855;BME280;68206;59.956;30.234;2023-07-20T12:19:44;99919.06;;;21.93;46.30
78855;BME280;68206;59.956;30.234;2023-07-20T12:22:14;99923.91;;;21.89;46.41
78855;BME280;68206;59.956;30.234;2023-07-20T12:24:42;99924.47;;;21.93;46.41
78855;BME280;68206;59.956;30.234;2023-07-20T12:27:13;99931.66;;;22.03;47.02
78855;BME280;68206;59.956;30.234;2023-07-20T12:29:45;99925.53;;;22.01;47.58
78855;BME280;68206;59.956;30.234;2023-07-20T12:32:13;99926.25;;;22.03;47.50
78855;BME280;68206;59.956;30.234;2023-07-20T12:34:41;99923.94;;;21.99;47.73
78855;BME280;68206;59.956;30.234;2023-07-20T12:37:09;99928.25;;;21.81;47.10
78855;BME280;68206;59.956;30.234;2023-07-20T12:39:40;99922.19;;;21.88;46.32
78855;BME280;68206;59.956;30.234;2023-07-20T12:42:14;99928.78;;;21.95;46.10
78855;BME280;68206;59.956;30.234;2023-07-20T12:44:44;99928.66;;;21.97;45.53
78855;BME280;68206;59.956;30.234;2023-07-20T12:47:12;99923.78;;;21.91;45.47
78855;BME280;68206;59.956;30.234;2023-07-20T12:49:41;99928.19;;;21.92;45.71
78855;BME280;68206;59.956;30.234;2023-07-20T12:52:12;99923.03;;;21.79;45.50
78855;BME280;68206;59.956;30.234;2023-07-20T12:54:41;99924.09;;;21.67;45.21
78855;BME280;68206;59.956;30.234;2023-07-20T12:57:10;99921.41;;;21.67;45.52
78855;BME280;68206;59.956;30.234;2023-07-20T12:59:39;99926.50;;;21.70;45.66
78855;BME280;68206;59.956;30.234;2023-07-20T13:02:07;99931.19;;;21.68;45.66
78855;BME280;68206;59.956;30.234;2023-07-20T13:04:35;99926.19;;;21.63;45.81
78855;BME280;68206;59.956;30.234;2023-07-20T13:07:03;99927.47;;;21.59;46.49
78855;BME280;68206;59.956;30.234;2023-07-20T13:09:53;99927.19;;;21.62;46.42